Strona główna
METAR-TAF:

METAR-TAF

Lotnisko :

Port lotniczy Cambridge

Cambridge, Anglia

Szerokość geograficzna: 52-12N, Długość geograficzna: 000-11E, wysokość: 15 m

Aktualna obserwacja pogody

Raport powstał 8 godziny i 19 minut temu, godzina 16:50 UTC
Wiatr 11 kt od południowo-południowy wschód
Temperatura 31°C
Wilgotność 40%
Ciśnienie 1015 hPa
Widzialność 10 km lub więcej
Brak chmur poniżej 1500 m i brak chmur cumulonimbus

METAR: EGSC 231650Z 15011KT CAVOK 31/16 Q1015

czas: 02:09 (01:09 UTC)

Prognoza

Raport powstał 11 godziny i 4 minut temu, godzina 14:05 UTC
Prognoza ważna od 23 godzina 15 UTC do 23 godzina 19 UTC
Wiatr 5 kt od południowo-południowy wschód
Widzialność 10 km lub więcej
Mało chmury na wysokości 4000 ft
Prawdopodobieństwo 30% :
Przejściowo
od 23 godzina 15 UTC do 23 godzina 19 UTC
Widzialność: 8000 m
przelotny opad deszczu

TAF: EGSC 231405Z 2315/2319 16005KT 9999 FEW040 PROB30 TEMPO 2315/2319 8000 SHRA

Obserwacja i prognoza pogody dla ponad 4000 lotnisk (raport METAR i TAF).

Dostępne stacje oznaczono żółtymi i czerwonymi punktami na mapie.

Najedź kursorem aby zobaczyć nazwę stacji.

Kliknij aby zobaczyć obserwacje i prognozy pogody.

Aby zmienić mapę: kliknij na zielony przycisk z czarnym krzyżykiem, aby powiększyć; na zielony przycisk z myślnikiem, aby pomniejszyć; na zielone strzałki, aby przejść do map sąsiednich.


METAR-TAF: